createdAt,value
2023-05-02T00:01:32.211Z,71.96
2023-05-02T00:03:59.115Z,70.57
2023-05-02T00:06:25.963Z,72.24
2023-05-02T00:08:52.787Z,70.81
2023-05-02T00:11:21.299Z,72.51
2023-05-02T00:13:48.017Z,69.90
2023-05-02T00:16:14.717Z,70.21
2023-05-02T00:18:41.481Z,67.50
2023-05-02T00:21:08.169Z,69.36
2023-05-02T00:23:34.883Z,68.89
2023-05-02T00:26:01.624Z,68.12
2023-05-02T00:28:29.737Z,69.77
2023-05-02T00:30:56.481Z,71.09
2023-05-02T00:33:23.217Z,70.78
2023-05-02T00:35:49.958Z,70.87
2023-05-02T00:38:16.699Z,70.05
2023-05-02T00:40:44.376Z,70.22
2023-05-02T00:43:11.060Z,69.65
2023-05-02T00:45:39.413Z,70.68
2023-05-02T00:48:06.844Z,69.14
2023-05-02T00:50:34.209Z,69.07
2023-05-02T00:53:00.918Z,68.04
2023-05-02T00:55:27.640Z,69.06
2023-05-02T00:57:54.375Z,70.18
2023-05-02T01:00:21.700Z,69.67
2023-05-02T01:02:52.684Z,71.09
2023-05-02T01:05:21.611Z,69.87
2023-05-02T01:08:02.481Z,70.43
2023-05-02T01:10:33.825Z,70.43
2023-05-02T01:13:03.734Z,71.17
2023-05-02T01:15:30.516Z,71.21
2023-05-02T01:17:58.641Z,69.37
2023-05-02T01:20:27.591Z,69.56
2023-05-02T01:22:54.642Z,70.70
2023-05-02T01:25:25.269Z,69.62
2023-05-02T01:27:58.328Z,70.78
2023-05-02T01:30:27.053Z,70.00
2023-05-02T01:32:54.147Z,69.63
2023-05-02T01:35:21.354Z,68.88
2023-05-02T01:37:48.554Z,69.60
2023-05-02T01:40:17.029Z,71.05
2023-05-02T01:42:43.713Z,71.59
2023-05-02T01:45:11.651Z,71.59
2023-05-02T01:47:39.825Z,71.72
2023-05-02T01:50:07.732Z,71.21
2023-05-02T01:52:34.411Z,71.38
2023-05-02T01:55:01.148Z,70.94
2023-05-02T01:57:27.874Z,71.53
2023-05-02T01:59:55.311Z,73.28
2023-05-02T02:02:22.069Z,72.01
2023-05-02T02:04:50.472Z,73.39
2023-05-02T02:07:17.375Z,74.59
2023-05-02T02:09:44.048Z,76.01
2023-05-02T02:12:12.222Z,74.49
2023-05-02T02:14:40.240Z,75.62
2023-05-02T02:17:11.985Z,76.01
2023-05-02T02:19:39.327Z,75.83
2023-05-02T02:22:07.534Z,76.75
2023-05-02T02:24:34.727Z,74.87
2023-05-02T02:27:01.523Z,74.80
2023-05-02T02:29:28.241Z,75.33
2023-05-02T02:31:54.914Z,77.05
2023-05-02T02:34:21.615Z,76.39
2023-05-02T02:36:50.578Z,76.61
2023-05-02T02:39:25.538Z,77.72
2023-05-02T02:41:59.336Z,77.38
2023-05-02T02:44:28.494Z,78.05
2023-05-02T02:47:00.396Z,77.08
2023-05-02T02:49:30.644Z,76.06
2023-05-02T02:52:01.200Z,76.98
2023-05-02T02:54:32.327Z,78.56
2023-05-02T02:57:01.333Z,78.49
2023-05-02T02:59:29.535Z,78.39
2023-05-02T03:02:02.271Z,76.90
2023-05-02T03:04:29.959Z,77.32
2023-05-02T03:06:56.643Z,77.04
2023-05-02T03:09:23.459Z,76.34
2023-05-02T03:11:51.509Z,76.16
2023-05-02T03:14:18.259Z,75.49
2023-05-02T03:16:45.192Z,74.04
2023-05-02T03:19:11.947Z,74.35
2023-05-02T03:21:38.665Z,73.61
2023-05-02T03:24:05.807Z,73.53
2023-05-02T03:26:32.504Z,72.59
2023-05-02T03:29:00.619Z,73.33
2023-05-02T03:31:27.407Z,72.53
2023-05-02T03:33:54.114Z,72.30
2023-05-02T03:36:20.814Z,72.61
2023-05-02T03:38:47.542Z,72.00
2023-05-02T03:41:14.244Z,71.78
2023-05-02T03:43:40.964Z,71.30
2023-05-02T03:46:09.351Z,71.05
2023-05-02T03:48:36.033Z,71.19
2023-05-02T03:51:02.810Z,71.26
2023-05-02T03:53:29.767Z,70.97
2023-05-02T03:55:56.495Z,70.77
2023-05-02T03:58:23.192Z,70.28
2023-05-02T04:00:49.887Z,70.89
2023-05-02T04:03:18.003Z,70.94
2023-05-02T04:05:44.778Z,71.45
2023-05-02T04:08:11.529Z,71.56
2023-05-02T04:10:38.203Z,72.77
2023-05-02T04:13:04.903Z,71.65
2023-05-02T04:15:31.830Z,70.62
2023-05-02T04:17:58.728Z,70.64
2023-05-02T04:20:26.868Z,69.86
2023-05-02T04:22:53.749Z,69.07
2023-05-02T04:25:20.454Z,68.11
2023-05-02T04:27:47.124Z,66.40
2023-05-02T04:30:13.994Z,65.73
2023-05-02T04:32:40.766Z,66.01
2023-05-02T04:35:08.126Z,63.25
2023-05-02T04:37:36.320Z,62.19
2023-05-02T04:40:03.662Z,63.08
2023-05-02T04:42:30.363Z,62.50
2023-05-02T04:44:57.114Z,59.77
2023-05-02T04:47:23.945Z,59.56
2023-05-02T04:49:50.687Z,58.12
2023-05-02T04:52:17.436Z,57.91
2023-05-02T04:54:45.599Z,58.04
2023-05-02T04:57:12.295Z,55.58
2023-05-02T04:59:39.031Z,57.01
2023-05-02T05:02:05.896Z,58.45
2023-05-02T05:04:32.683Z,57.36
2023-05-02T05:06:59.534Z,56.53
2023-05-02T05:09:26.302Z,56.85
2023-05-02T05:11:54.459Z,56.20
2023-05-02T05:14:21.187Z,56.41
2023-05-02T05:16:48.061Z,55.76
2023-05-02T05:19:14.920Z,55.99
2023-05-02T05:21:41.692Z,55.18
2023-05-02T05:24:08.414Z,53.75
2023-05-02T05:26:35.310Z,54.53
2023-05-02T05:29:03.521Z,54.42
2023-05-02T05:31:30.277Z,53.75
2023-05-02T05:33:57.131Z,52.49
2023-05-02T05:36:23.909Z,52.95
2023-05-02T05:38:50.924Z,54.49
2023-05-02T05:41:17.647Z,53.67
2023-05-02T05:43:44.448Z,55.24
2023-05-02T05:46:12.548Z,52.90
2023-05-02T05:48:39.259Z,53.28
2023-05-02T05:51:06.486Z,53.80
2023-05-02T05:53:33.227Z,52.32
2023-05-02T05:55:59.996Z,53.45
2023-05-02T05:58:26.813Z,53.59
2023-05-02T06:00:53.562Z,53.98
2023-05-02T06:03:21.897Z,53.22
2023-05-02T06:05:48.721Z,53.29
2023-05-02T06:08:15.459Z,50.07
2023-05-02T06:10:42.138Z,51.03
2023-05-02T06:13:08.940Z,51.67
2023-05-02T06:15:35.682Z,52.56
2023-05-02T06:18:02.487Z,51.97
2023-05-02T06:20:30.620Z,50.39
2023-05-02T06:22:57.358Z,49.34
2023-05-02T06:25:24.127Z,48.63
2023-05-02T06:27:50.964Z,49.49
2023-05-02T06:30:17.867Z,48.66
2023-05-02T06:32:44.588Z,49.08
2023-05-02T06:35:11.514Z,48.19
2023-05-02T06:37:39.683Z,46.94
2023-05-02T06:40:07.740Z,46.26
2023-05-02T06:42:34.484Z,45.49
2023-05-02T06:45:01.196Z,44.81
2023-05-02T06:47:27.998Z,45.45
2023-05-02T06:49:56.066Z,43.10
2023-05-02T06:52:22.851Z,44.46
2023-05-02T06:54:50.978Z,44.60
2023-05-02T06:57:17.721Z,43.73
2023-05-02T06:59:44.444Z,44.70
2023-05-02T07:02:11.142Z,43.51
2023-05-02T07:04:37.996Z,43.51
2023-05-02T07:07:04.856Z,41.91
2023-05-02T07:09:31.594Z,41.03
2023-05-02T07:11:59.678Z,43.05
2023-05-02T07:14:26.360Z,40.45
2023-05-02T07:16:53.794Z,42.06
2023-05-02T07:19:20.578Z,42.87
2023-05-02T07:21:47.293Z,41.24
2023-05-02T07:24:16.715Z,42.25
2023-05-02T07:26:43.436Z,42.44
2023-05-02T07:29:11.536Z,44.02
2023-05-02T07:31:38.254Z,41.32
2023-05-02T07:34:05.138Z,43.73
2023-05-02T07:36:31.936Z,44.93
2023-05-02T07:38:58.620Z,46.25
2023-05-02T07:41:25.559Z,44.89
2023-05-02T07:43:52.234Z,46.86
2023-05-02T07:46:20.393Z,44.30
2023-05-02T07:48:47.204Z,44.21
2023-05-02T07:51:13.963Z,43.85
2023-05-02T07:53:40.670Z,41.20
2023-05-02T07:56:08.070Z,38.53
2023-05-02T07:58:35.105Z,40.35
2023-05-02T08:01:01.852Z,38.98
2023-05-02T08:03:30.092Z,41.39
2023-05-02T08:05:57.147Z,43.60
2023-05-02T08:08:23.981Z,43.18
2023-05-02T08:10:50.746Z,42.99
2023-05-02T08:13:17.490Z,41.81
2023-05-02T08:15:44.259Z,38.37
2023-05-02T08:18:11.146Z,40.58
2023-05-02T08:20:39.248Z,38.55
2023-05-02T08:23:06.070Z,39.71
2023-05-02T08:25:32.814Z,41.28
2023-05-02T08:27:59.523Z,39.11
2023-05-02T08:30:26.277Z,41.69
2023-05-02T08:32:53.070Z,41.44
2023-05-02T08:35:19.820Z,40.02
2023-05-02T08:37:47.957Z,39.69
2023-05-02T08:40:14.665Z,34.73
2023-05-02T08:42:41.922Z,37.11
2023-05-02T08:45:09.421Z,39.47
2023-05-02T08:47:36.554Z,38.80
2023-05-02T08:50:03.720Z,38.39
2023-05-02T08:52:30.617Z,37.05
2023-05-02T08:54:58.989Z,38.96
2023-05-02T08:57:26.459Z,36.85
2023-05-02T08:59:53.214Z,36.66
2023-05-02T09:02:27.190Z,36.31
2023-05-02T09:04:54.611Z,34.85
2023-05-02T09:07:21.457Z,35.81
2023-05-02T09:09:48.450Z,37.62
2023-05-02T09:12:16.607Z,38.39
2023-05-02T09:14:43.587Z,40.84
2023-05-02T09:17:10.418Z,39.18
2023-05-02T09:19:37.119Z,35.55
2023-05-02T09:22:03.825Z,34.81
2023-05-02T09:24:30.680Z,36.92
2023-05-02T09:26:58.722Z,35.58
2023-05-02T09:29:27.230Z,36.80
2023-05-02T09:31:56.076Z,36.83
2023-05-02T09:34:23.416Z,37.50
2023-05-02T09:36:51.004Z,36.69
2023-05-02T09:39:18.555Z,36.35
2023-05-02T09:41:45.755Z,36.83
2023-05-02T09:44:13.210Z,35.02
2023-05-02T09:46:41.607Z,34.78
2023-05-02T09:49:08.369Z,37.73
2023-05-02T09:51:35.032Z,37.93
2023-05-02T09:54:01.862Z,36.82
2023-05-02T09:56:28.758Z,36.61
2023-05-02T09:59:16.041Z,35.94
2023-05-02T10:01:44.164Z,36.59
2023-05-02T10:04:12.062Z,35.35
2023-05-02T10:06:38.886Z,37.67
2023-05-02T10:09:05.642Z,37.28
2023-05-02T10:11:32.358Z,34.90
2023-05-02T10:13:59.046Z,35.01
2023-05-02T10:16:27.944Z,37.92
2023-05-02T10:18:58.443Z,37.01
2023-05-02T10:21:25.885Z,35.50
2023-05-02T10:23:52.654Z,35.97
2023-05-02T10:26:19.573Z,37.52
2023-05-02T10:28:46.304Z,37.67
2023-05-02T10:31:13.478Z,33.88
2023-05-02T10:33:40.219Z,33.22
2023-05-02T10:36:09.485Z,33.40
2023-05-02T10:38:36.285Z,36.70
2023-05-02T10:41:05.473Z,34.06
2023-05-02T10:43:32.722Z,34.36
2023-05-02T10:45:59.369Z,34.20
2023-05-02T10:48:26.664Z,36.93
2023-05-02T10:50:54.457Z,34.24
2023-05-02T10:53:30.044Z,33.02
2023-05-02T10:56:16.906Z,32.94
2023-05-02T10:58:44.243Z,33.01
2023-05-02T11:01:33.171Z,33.42
2023-05-02T11:04:00.190Z,33.41
2023-05-02T11:06:28.510Z,32.71
2023-05-02T11:09:28.900Z,30.36
2023-05-02T11:11:57.111Z,29.94
2023-05-02T11:14:43.705Z,31.49
2023-05-02T11:17:10.416Z,32.36
2023-05-02T11:20:19.263Z,31.83
2023-05-02T11:22:46.220Z,32.11
2023-05-02T11:25:37.986Z,33.14
2023-05-02T11:28:07.207Z,31.52
2023-05-02T11:30:46.162Z,32.09
2023-05-02T11:33:16.514Z,31.11
2023-05-02T11:35:44.053Z,30.19
2023-05-02T11:38:11.597Z,31.20
2023-05-02T11:40:38.243Z,30.54
2023-05-02T11:43:13.910Z,31.93
2023-05-02T11:45:40.571Z,31.56
2023-05-02T11:48:07.778Z,31.36
2023-05-02T11:50:34.642Z,30.88
2023-05-02T11:53:01.314Z,31.39
2023-05-02T11:55:28.084Z,32.03
2023-05-02T11:57:54.776Z,31.33
2023-05-02T12:00:27.307Z,32.07
2023-05-02T12:02:54.062Z,30.44
2023-05-02T12:05:28.332Z,30.46
2023-05-02T12:07:55.102Z,31.45
2023-05-02T12:10:21.765Z,32.07
2023-05-02T12:12:48.498Z,31.32
2023-05-02T12:15:15.357Z,32.07
2023-05-02T12:17:45.524Z,31.27
2023-05-02T12:20:12.837Z,31.30
2023-05-02T12:22:39.564Z,32.02
2023-05-02T12:25:07.541Z,32.16
2023-05-02T12:27:34.306Z,33.60
2023-05-02T12:30:01.206Z,33.54
2023-05-02T12:32:28.673Z,31.95
2023-05-02T12:34:57.297Z,32.12
2023-05-02T12:37:24.142Z,32.26
2023-05-02T12:39:50.900Z,32.77
2023-05-02T12:42:19.376Z,31.75
2023-05-02T12:44:47.250Z,31.78
2023-05-02T12:47:14.536Z,32.08
2023-05-02T12:49:50.614Z,32.77
2023-05-02T12:52:18.878Z,33.62
2023-05-02T12:54:46.543Z,34.17
2023-05-02T12:57:22.934Z,34.97
2023-05-02T12:59:51.645Z,33.72
2023-05-02T13:02:18.371Z,34.78
2023-05-02T13:04:45.084Z,33.98
2023-05-02T13:07:11.754Z,34.51
2023-05-02T13:09:39.849Z,34.25
2023-05-02T13:12:06.679Z,34.80
2023-05-02T13:14:33.490Z,33.66
2023-05-02T13:17:00.468Z,34.37
2023-05-02T13:19:27.216Z,35.04
2023-05-02T13:21:53.910Z,34.41
2023-05-02T13:24:20.628Z,34.69
2023-05-02T13:26:48.826Z,34.68
2023-05-02T13:29:15.498Z,35.48
2023-05-02T13:31:42.175Z,34.99
2023-05-02T13:34:08.951Z,36.03
2023-05-02T13:36:35.628Z,36.06
2023-05-02T13:39:02.346Z,36.04
2023-05-02T13:41:29.099Z,35.73
2023-05-02T13:43:57.257Z,36.23
2023-05-02T13:46:24.012Z,36.05
2023-05-02T13:48:50.835Z,36.12
2023-05-02T13:51:17.520Z,35.70
2023-05-02T13:53:44.209Z,36.16
2023-05-02T13:56:12.189Z,36.33
2023-05-02T13:58:38.955Z,36.39
2023-05-02T14:01:07.100Z,36.68
2023-05-02T14:03:33.930Z,36.95
2023-05-02T14:06:00.781Z,36.21
2023-05-02T14:08:27.470Z,36.77
2023-05-02T14:10:54.258Z,36.45
2023-05-02T14:13:21.016Z,36.15
2023-05-02T14:15:47.812Z,36.35
2023-05-02T14:18:16.038Z,37.11
2023-05-02T14:20:42.726Z,36.38
2023-05-02T14:23:09.450Z,36.19
2023-05-02T14:25:36.192Z,37.53
2023-05-02T14:28:03.092Z,37.38
2023-05-02T14:30:29.917Z,37.93
2023-05-02T14:32:56.766Z,37.54
2023-05-02T14:35:25.183Z,37.62
2023-05-02T14:37:51.908Z,37.84
2023-05-02T14:40:18.851Z,37.53
2023-05-02T14:42:45.561Z,37.24
2023-05-02T14:45:12.504Z,37.25
2023-05-02T14:47:39.342Z,37.53
2023-05-02T14:50:07.339Z,37.19
2023-05-02T14:52:35.536Z,37.06
2023-05-02T14:55:02.398Z,37.41
2023-05-02T14:57:29.218Z,37.60
2023-05-02T14:59:56.018Z,38.17
2023-05-02T15:02:22.899Z,37.74
2023-05-02T15:04:50.039Z,38.21
2023-05-02T15:07:17.162Z,39.04
2023-05-02T15:09:45.605Z,39.14
2023-05-02T15:12:12.304Z,39.21
2023-05-02T15:14:39.161Z,40.33
2023-05-02T15:17:06.010Z,42.13
2023-05-02T15:19:32.808Z,43.10
2023-05-02T15:21:59.526Z,44.49
2023-05-02T15:24:26.452Z,44.46
2023-05-02T15:26:54.568Z,44.71
2023-05-02T15:29:21.298Z,44.48
2023-05-02T15:31:48.103Z,45.69
2023-05-02T15:34:15.276Z,45.45
2023-05-02T15:36:41.987Z,46.57
2023-05-02T15:39:08.751Z,45.09
2023-05-02T15:41:35.487Z,45.13
2023-05-02T15:44:03.787Z,45.43
2023-05-02T15:46:30.645Z,46.52
2023-05-02T15:48:57.391Z,45.62
2023-05-02T15:51:24.105Z,45.65
2023-05-02T15:53:51.062Z,46.03
2023-05-02T15:56:17.808Z,47.95
2023-05-02T15:58:44.515Z,46.28
2023-05-02T16:01:12.823Z,46.53
2023-05-02T16:03:39.766Z,46.93
2023-05-02T16:06:07.029Z,46.32
2023-05-02T16:08:33.848Z,47.22
2023-05-02T16:11:00.533Z,47.23
2023-05-02T16:13:27.249Z,47.18
2023-05-02T16:15:54.020Z,47.46
2023-05-02T16:18:22.145Z,46.94
2023-05-02T16:20:48.858Z,48.48
2023-05-02T16:23:15.592Z,47.89
2023-05-02T16:25:42.305Z,48.20
2023-05-02T16:28:09.086Z,48.25
2023-05-02T16:30:36.038Z,48.59
2023-05-02T16:33:02.866Z,49.21
2023-05-02T16:35:31.001Z,49.39
2023-05-02T16:37:57.731Z,49.81
2023-05-02T16:40:25.768Z,49.40
2023-05-02T16:42:54.205Z,50.01
2023-05-02T16:45:21.289Z,50.19
2023-05-02T16:47:48.055Z,50.47
2023-05-02T16:50:14.968Z,51.01
2023-05-02T16:52:43.081Z,51.42
2023-05-02T16:55:09.949Z,53.04
2023-05-02T16:57:36.681Z,52.80
2023-05-02T17:00:03.889Z,53.00
2023-05-02T17:02:31.001Z,54.44
2023-05-02T17:04:57.804Z,55.04
2023-05-02T17:07:24.532Z,54.47
2023-05-02T17:09:52.607Z,57.42
2023-05-02T17:12:19.363Z,56.27
2023-05-02T17:14:46.128Z,56.69
2023-05-02T17:17:12.863Z,57.29
2023-05-02T17:19:39.656Z,60.68
2023-05-02T17:22:06.379Z,62.78
2023-05-02T17:24:33.294Z,61.63
2023-05-02T17:27:01.508Z,62.72
2023-05-02T17:29:28.204Z,64.43
2023-05-02T17:31:54.906Z,67.55
2023-05-02T17:34:21.588Z,69.49
2023-05-02T17:36:48.367Z,71.11
2023-05-02T17:39:15.062Z,71.54
2023-05-02T17:41:41.750Z,72.21
2023-05-02T17:44:09.906Z,72.73
2023-05-02T17:46:36.724Z,73.22
2023-05-02T17:49:03.563Z,76.10
2023-05-02T17:51:30.378Z,77.59
2023-05-02T17:53:57.066Z,78.08
2023-05-02T17:56:23.754Z,77.25
2023-05-02T17:58:50.599Z,79.89
2023-05-02T18:01:18.792Z,78.14
2023-05-02T18:03:45.662Z,80.02
2023-05-02T18:06:15.632Z,76.96
2023-05-02T18:08:42.434Z,78.72
2023-05-02T18:11:13.907Z,79.42
2023-05-02T18:13:40.754Z,81.61
2023-05-02T18:16:07.473Z,79.83
2023-05-02T18:18:39.119Z,79.39
2023-05-02T18:21:05.956Z,77.94
2023-05-02T18:23:32.732Z,80.24
2023-05-02T18:25:59.381Z,80.52
2023-05-02T18:28:26.240Z,80.60
2023-05-02T18:30:52.937Z,78.63
2023-05-02T18:33:19.656Z,78.32
2023-05-02T18:35:47.889Z,80.16
2023-05-02T18:38:14.685Z,79.64
2023-05-02T18:40:41.431Z,80.72
2023-05-02T18:43:08.232Z,80.96
2023-05-02T18:45:35.133Z,79.00
2023-05-02T18:48:01.962Z,79.06
2023-05-02T18:50:28.720Z,81.29
2023-05-02T18:52:56.804Z,82.04
2023-05-02T18:55:25.600Z,79.29
2023-05-02T18:57:52.383Z,81.48
2023-05-02T19:00:19.463Z,82.11
2023-05-02T19:02:46.341Z,80.32
2023-05-02T19:05:13.218Z,80.23
2023-05-02T19:07:42.534Z,82.67
2023-05-02T19:10:11.016Z,80.79
2023-05-02T19:12:37.922Z,82.92
2023-05-02T19:15:05.547Z,81.81
2023-05-02T19:17:32.269Z,83.86
2023-05-02T19:19:59.062Z,85.34
2023-05-02T19:22:25.901Z,85.59
2023-05-02T19:24:52.894Z,83.89
2023-05-02T19:27:21.053Z,85.14
2023-05-02T19:29:47.776Z,84.49
2023-05-02T19:32:14.832Z,84.78
2023-05-02T19:34:41.842Z,84.90
2023-05-02T19:37:08.822Z,85.06
2023-05-02T19:39:35.513Z,84.45
2023-05-02T19:42:02.384Z,83.95
2023-05-02T19:44:30.500Z,83.98
2023-05-02T19:46:57.261Z,85.14
2023-05-02T19:49:24.433Z,84.61
2023-05-02T19:51:51.227Z,85.74
2023-05-02T19:54:17.909Z,84.34
2023-05-02T19:56:44.684Z,84.94
2023-05-02T19:59:11.442Z,86.28
2023-05-02T20:01:39.680Z,85.17
2023-05-02T20:04:06.453Z,84.83
2023-05-02T20:06:33.157Z,86.46
2023-05-02T20:08:59.874Z,84.32
2023-05-02T20:11:26.610Z,83.74
2023-05-02T20:13:53.303Z,84.89
2023-05-02T20:16:20.138Z,84.85
2023-05-02T20:18:48.386Z,85.01
2023-05-02T20:21:15.112Z,85.71
2023-05-02T20:23:41.852Z,85.94
2023-05-02T20:26:08.619Z,85.53
2023-05-02T20:28:35.340Z,86.21
2023-05-02T20:31:02.112Z,86.38
2023-05-02T20:33:43.797Z,86.86
2023-05-02T20:36:13.698Z,87.94
2023-05-02T20:38:40.624Z,89.07
2023-05-02T20:41:07.298Z,89.23
2023-05-02T20:43:34.038Z,87.79
2023-05-02T20:46:08.512Z,87.20
2023-05-02T20:48:35.230Z,89.33
2023-05-02T20:51:01.907Z,89.27
2023-05-02T20:53:30.498Z,88.18
2023-05-02T20:55:57.302Z,87.91
2023-05-02T20:58:24.087Z,90.50
2023-05-02T21:00:50.809Z,90.28
2023-05-02T21:03:17.608Z,90.05
2023-05-02T21:05:44.429Z,90.63
2023-05-02T21:08:11.961Z,91.16
2023-05-02T21:10:40.025Z,90.67
2023-05-02T21:13:06.722Z,91.38
2023-05-02T21:15:35.083Z,90.34
2023-05-02T21:18:02.003Z,88.98
2023-05-02T21:20:28.776Z,89.87
2023-05-02T21:22:55.536Z,90.10
2023-05-02T21:25:22.530Z,90.44
2023-05-02T21:27:50.715Z,90.22
2023-05-02T21:30:17.618Z,89.63
2023-05-02T21:32:44.767Z,90.34
2023-05-02T21:35:11.689Z,88.32
2023-05-02T21:37:38.423Z,87.80
2023-05-02T21:40:06.369Z,87.82
2023-05-02T21:42:33.119Z,87.89
2023-05-02T21:45:01.382Z,88.13
2023-05-02T21:47:28.087Z,88.61
2023-05-02T21:49:55.590Z,88.68
2023-05-02T21:52:22.335Z,88.86
2023-05-02T21:54:49.039Z,88.46
2023-05-02T21:57:15.732Z,87.16
2023-05-02T21:59:42.658Z,87.71
2023-05-02T22:02:10.772Z,87.63
2023-05-02T22:04:37.521Z,89.13
2023-05-02T22:07:04.306Z,88.45
2023-05-02T22:09:33.442Z,89.49
2023-05-02T22:12:00.374Z,89.30
2023-05-02T22:14:33.783Z,89.40
2023-05-02T22:17:12.166Z,87.60
2023-05-02T22:19:38.896Z,88.78
2023-05-02T22:22:05.641Z,88.07
2023-05-02T22:24:32.890Z,88.48
2023-05-02T22:26:59.658Z,88.45
2023-05-02T22:29:26.366Z,89.53
2023-05-02T22:31:53.070Z,89.37
2023-05-02T22:34:21.202Z,89.94
2023-05-02T22:36:47.921Z,90.65
2023-05-02T22:39:14.643Z,92.46
2023-05-02T22:41:41.598Z,90.95
2023-05-02T22:44:08.341Z,91.04
2023-05-02T22:46:35.856Z,91.00
2023-05-02T22:49:02.636Z,91.83
2023-05-02T22:51:30.752Z,92.34
2023-05-02T22:53:57.460Z,92.39
2023-05-02T22:56:24.430Z,91.89
2023-05-02T22:58:51.113Z,92.04
2023-05-02T23:01:17.871Z,92.89
2023-05-02T23:03:44.745Z,92.58
2023-05-02T23:06:11.584Z,92.22
2023-05-02T23:08:39.730Z,92.83
2023-05-02T23:11:06.545Z,92.69
2023-05-02T23:13:33.244Z,93.36
2023-05-02T23:15:59.970Z,93.96
2023-05-02T23:18:26.811Z,93.82
2023-05-02T23:20:53.485Z,93.83
2023-05-02T23:23:20.163Z,93.06
2023-05-02T23:25:48.444Z,93.60
2023-05-02T23:28:15.177Z,93.24
2023-05-02T23:30:41.888Z,93.12
2023-05-02T23:33:08.612Z,93.49
2023-05-02T23:35:35.306Z,94.03
2023-05-02T23:38:04.576Z,93.64
2023-05-02T23:40:31.300Z,93.24
2023-05-02T23:42:59.359Z,93.64
2023-05-02T23:45:26.038Z,93.59
2023-05-02T23:47:52.887Z,95.03
2023-05-02T23:50:19.646Z,92.81
2023-05-02T23:52:46.369Z,92.79
2023-05-02T23:55:13.153Z,93.13
2023-05-02T23:57:39.844Z,92.83
